Time;durP1;ratioP1;P1;durP2;ratioP2;P2;SDS_P1;SDS_P2;PMS_P1;PMS_P2;Temp;Humidity;BMP_temperature;BMP_pressure;BME280_temperature;BME280_humidity;BME280_pressure;Samples;Min_cycle;Max_cycle;Signal;HPM_P1;HPM_P2
2022/10/17 00:02:21;;;;;;;2.83;1.63;;;;;;;;;;5068211;28;20507;-86
2022/10/17 00:05:06;;;;;;;8.07;1.80;;;;;;;;;;5055429;28;20519;-85
2022/10/17 00:07:51;;;;;;;5.22;1.85;;;;;;;;;;5054132;28;20452;-85
2022/10/17 00:10:36;;;;;;;5.88;1.67;;;;;;;;;;5067986;28;20032;-85
2022/10/17 00:13:20;;;;;;;4.35;1.83;;;;;;;;;;5068289;28;20108;-85
2022/10/17 00:16:05;;;;;;;4.50;1.80;;;;;;;;;;5068344;28;20540;-85
2022/10/17 00:18:50;;;;;;;7.85;2.30;;;;;;;;;;5055379;28;20072;-85
2022/10/17 00:21:34;;;;;;;6.97;2.08;;;;;;;;;;5054294;28;20066;-85
2022/10/17 00:24:19;;;;;;;8.40;2.13;;;;;;;;;;5055042;28;20114;-85
2022/10/17 00:27:04;;;;;;;3.35;2.03;;;;;;;;;;5054812;28;20083;-85
2022/10/17 00:29:49;;;;;;;8.10;2.20;;;;;;;;;;5054611;28;20036;-85
2022/10/17 00:32:33;;;;;;;6.85;2.30;;;;;;;;;;5054376;28;20116;-85
2022/10/17 00:35:18;;;;;;;4.13;2.05;;;;;;;;;;5067835;28;20111;-85
2022/10/17 00:38:03;;;;;;;5.03;2.08;;;;;;;;;;5067979;28;20043;-85
2022/10/17 00:40:47;;;;;;;3.33;2.05;;;;;;;;;;5067353;28;20079;-86
2022/10/17 00:43:50;;;;;;;6.75;2.03;;;;;;;;;;5066548;28;20083;-86
2022/10/17 00:46:36;;;;;;;8.25;2.10;;;;;;;;;;5054153;28;20048;-85
2022/10/17 00:49:22;;;;;;;133.90;18.73;;;;;;;;;;5054648;28;20040;-85
2022/10/17 00:52:20;;;;;;;18.80;3.45;;;;;;;;;;5054529;28;20393;-86
2022/10/17 00:55:21;;;;;;;77.55;7.78;;;;;;;;;;5054650;28;20114;-86
2022/10/17 00:58:06;;;;;;;9.10;4.15;;;;;;;;;;5054556;28;20044;-85
2022/10/17 01:00:50;;;;;;;122.68;12.10;;;;;;;;;;5052795;28;20567;-86
2022/10/17 01:03:35;;;;;;;12.20;3.75;;;;;;;;;;5052873;28;20051;-85
2022/10/17 01:06:19;;;;;;;5.60;2.95;;;;;;;;;;5054005;28;20410;-85
2022/10/17 01:09:04;;;;;;;7.13;2.92;;;;;;;;;;5054280;28;20116;-85
2022/10/17 01:11:49;;;;;;;8.05;3.78;;;;;;;;;;5052588;28;20071;-86
2022/10/17 01:14:33;;;;;;;8.25;3.55;;;;;;;;;;5053395;28;20036;-86
2022/10/17 01:17:33;;;;;;;8.07;3.10;;;;;;;;;;5067178;28;20044;-85
2022/10/17 01:20:21;;;;;;;5.40;3.63;;;;;;;;;;5053843;28;20119;-86
2022/10/17 01:23:29;;;;;;;6.68;2.83;;;12.20;99.90;;;;;;5053817;28;20035;-85
2022/10/17 01:26:18;;;;;;;9.38;3.10;;;;;;;;;;5053039;28;20056;-85
2022/10/17 01:29:06;;;;;;;9.48;3.13;;;;;;;;;;5067050;28;20496;-86
2022/10/17 01:32:00;;;;;;;5.80;2.85;;;;;;;;;;5053081;28;20426;-86
2022/10/17 01:34:51;;;;;;;34.60;4.43;;;;;;;;;;5053134;28;20040;-86
2022/10/17 01:37:41;;;;;;;8.32;3.03;;;;;;;;;;5050772;28;20039;-86
2022/10/17 01:40:32;;;;;;;9.30;2.90;;;;;;;;;;5052649;28;20083;-86
2022/10/17 01:43:31;;;;;;;5.15;2.50;;;;;;;;;;5053480;28;20098;-85
2022/10/17 01:46:22;;;;;;;10.85;3.25;;;;;;;;;;5053559;28;20405;-86
2022/10/17 01:49:08;;;;;;;7.25;2.63;;;;;;;;;;5066534;28;20070;-86
2022/10/17 01:51:56;;;;;;;7.32;2.80;;;;;;;;;;5052849;28;20120;-86
2022/10/17 01:54:44;;;;;;;8.05;3.05;;;;;;;;;;5052711;28;20051;-86
2022/10/17 01:57:35;;;;;;;9.27;3.08;;;;;;;;;;5066114;28;20523;-86
2022/10/17 02:00:24;;;;;;;6.80;2.83;;;;;;;;;;5053303;28;20032;-86
2022/10/17 02:03:11;;;;;;;6.03;2.80;;;;;;;;;;5051964;28;20049;-86
2022/10/17 02:05:55;;;;;;;5.88;2.80;;;;;;;;;;5052291;28;20051;-86
2022/10/17 02:08:40;;;;;;;6.22;3.13;;;;;;;;;;5052685;28;20044;-87
2022/10/17 02:11:26;;;;;;;7.43;3.10;;;;;;;;;;5052817;28;20055;-86
2022/10/17 02:14:19;;;;;;;9.43;3.13;;;;;;;;;;5052964;28;20040;-86
2022/10/17 02:17:07;;;;;;;9.93;3.72;;;;;;;;;;5052602;28;20110;-86
2022/10/17 02:20:02;;;;;;;9.00;3.40;;;;;;;;;;5052195;28;20039;-86
2022/10/17 02:22:55;;;;;;;9.30;3.35;;;;;;;;;;5052414;28;20055;-86
2022/10/17 02:25:48;;;;;;;7.13;3.40;;;;;;;;;;5065856;28;20439;-86
2022/10/17 02:28:36;;;;;;;7.90;3.63;;;;;;;;;;5052585;28;20537;-86
2022/10/17 02:31:24;;;;;;;9.82;3.22;;;;;;;;;;5052690;28;20111;-85
2022/10/17 02:34:16;;;;;;;9.27;3.50;;;;;;;;;;5065801;28;20044;-86
2022/10/17 02:37:02;;;;;;;6.30;3.30;;;;;;;;;;5051907;28;20067;-86
2022/10/17 02:39:48;;;;;;;8.40;4.20;;;;;;;;;;5065207;28;20516;-86
2022/10/17 02:42:32;;;;;;;5.70;4.40;;;;;;;;;;5052644;28;20032;-86
2022/10/17 02:45:17;;;;;;;12.18;4.47;;;;;;;;;;5051247;28;20044;-85
2022/10/17 02:48:03;;;;;;;6.97;3.90;;;;;;;;;;5050938;28;20111;-85
2022/10/17 02:50:58;;;;;;;6.38;3.97;;;;;;;;;;5051741;28;20040;-86
2022/10/17 02:53:46;;;;;;;6.35;3.78;;;;;;;;;;5065400;28;20040;-86
2022/10/17 02:56:32;;;;;;;7.57;4.00;;;;;;;;;;5065454;28;20064;-86
2022/10/17 02:59:20;;;;;;;7.78;4.10;;;;;;;;;;5052132;28;20047;-86
2022/10/17 03:02:05;;;;;;;6.22;4.13;;;;;;;;;;5051778;28;20937;-86
2022/10/17 03:04:50;;;;;;;10.93;5.30;;;;;;;;;;5064410;28;20033;-86
2022/10/17 03:07:35;;;;;;;8.27;4.80;;;;;;;;;;5065203;28;20102;-86
2022/10/17 03:10:19;;;;;;;7.82;4.85;;;;;;;;;;5052448;28;20048;-85
2022/10/17 03:13:04;;;;;;;6.68;4.85;;;;;;;;;;5051669;28;20110;-86
2022/10/17 03:15:49;;;;;;;6.78;4.88;;;;;;;;;;5051647;28;20059;-86
2022/10/17 03:18:33;;;;;;;7.75;5.20;;;;;;;;;;5065432;28;20048;-86
2022/10/17 03:21:18;;;;;;;8.38;5.53;;;;;;;;;;5052079;28;20408;-86
2022/10/17 03:24:02;;;;;;;10.30;5.30;;;;;;;;;;5050620;28;20040;-86
2022/10/17 03:26:47;;;;;;;7.78;5.10;;;;;;;;;;5051948;28;20114;-86
2022/10/17 03:29:31;;;;;;;8.68;6.15;;;;;;;;;;5065047;28;20079;-86
2022/10/17 03:32:16;;;;;;;11.48;6.07;;;;;;;;;;5051920;28;20039;-85
2022/10/17 03:35:01;;;;;;;9.35;6.05;;;;;;;;;;5064395;28;20064;-86
2022/10/17 03:37:46;;;;;;;9.68;5.75;;;;;;;;;;5052017;28;20401;-86
2022/10/17 03:40:30;;;;;;;12.00;6.40;;;;;;;;;;5052052;28;20036;-86
2022/10/17 03:43:15;;;;;;;10.02;5.88;;;;;;;;;;5064324;28;20071;-86
2022/10/17 03:45:59;;;;;;;8.65;6.25;;;;;;;;;;5064389;28;20040;-86
2022/10/17 03:48:44;;;;;;;10.15;6.68;;;;;;;;;;5064906;28;20059;-86
2022/10/17 03:51:29;;;;;;;10.15;6.10;;;;;;;;;;5051960;28;20098;-86
2022/10/17 03:54:13;;;;;;;11.68;6.32;;;;;;;;;;5051080;28;20040;-86
2022/10/17 03:56:58;;;;;;;11.65;6.25;;;;;;;;;;5050997;28;20145;-85
2022/10/17 03:59:42;;;;;;;11.45;6.68;;;;;;;;;;5051843;28;20075;-86
2022/10/17 04:02:27;;;;;;;8.45;6.60;;;;;;;;;;5051602;28;20044;-86
2022/10/17 04:05:12;;;;;;;10.98;6.90;;;;;;;;;;5051061;28;20037;-86
2022/10/17 04:07:56;;;;;;;10.10;7.18;;;;;;;;;;5064039;28;20075;-87
2022/10/17 04:10:40;;;;;;;13.02;7.25;;;;;;;;;;5064714;28;20400;-86
2022/10/17 04:13:25;;;;;;;9.50;6.43;;;;;;;;;;5064760;28;20401;-86
2022/10/17 04:16:15;;;;;;;11.27;7.68;;;;;;;;;;5051833;28;20105;-86
2022/10/17 04:19:00;;;;;;;14.43;7.68;;;;;;;;;;5054750;28;20083;-87
2022/10/17 04:21:45;;;;;;;12.40;7.35;;;;;;;;;;5068494;28;20126;-85
2022/10/17 04:24:29;;;;;;;9.35;6.82;;;;;;;;;;5055053;28;20071;-85
2022/10/17 04:27:14;;;;;;;12.05;8.05;;;;;;;;;;5054416;28;20129;-86
2022/10/17 04:29:58;;;;;;;13.60;8.20;;;;;;;;;;5054532;28;20040;-86
2022/10/17 04:32:43;;;;;;;15.75;7.95;;;;;;;;;;5068271;28;20058;-87
2022/10/17 04:35:27;;;;;;;14.30;8.68;;;;;;;;;;5055044;28;20048;-86
2022/10/17 04:38:12;;;;;;;12.25;8.38;;;;;;;;;;5054061;28;20638;-86
2022/10/17 04:40:57;;;;;;;17.42;8.60;;;;;;;;;;5067914;28;20048;-85
2022/10/17 04:43:41;;;;;;;14.27;9.73;;;;;;;;;;5054626;28;20087;-86
2022/10/17 04:46:26;;;;;;;11.52;8.40;;;;;;;;;;5054481;28;20116;-85
2022/10/17 04:49:10;;;;;;;16.60;9.82;;;;;;;;;;5053879;28;20095;-86
2022/10/17 04:51:55;;;;;;;14.98;9.45;;;;;;;;;;5053616;28;20059;-86
2022/10/17 04:54:39;;;;;;;15.30;8.85;;;;;;;;;;5067883;28;20035;-86
2022/10/17 04:57:24;;;;;;;15.18;9.30;;;;;;;;;;5054289;28;20092;-86
2022/10/17 05:00:09;;;;;;;14.85;8.88;;;;;;;;;;5060833;28;20044;-86
2022/10/17 05:02:53;;;;;;;15.70;9.07;;;;;;;;;;5067682;28;20039;-86
2022/10/17 05:05:38;;;;;;;14.32;8.85;;;;;;;;;;5054245;28;20128;-86
2022/10/17 05:08:23;;;;;;;13.77;8.13;;;;;;;;;;5035891;28;20080;-86
2022/10/17 05:11:25;;;;;;;12.43;9.00;;;13.70;99.90;;;;;;5062646;28;20040;-85
2022/10/17 05:14:10;;;;;;;12.75;8.93;;;;;;;;;;5052470;28;20086;-86
2022/10/17 05:16:54;;;;;;;14.68;9.32;;;;;;;;;;5067291;28;20047;-85
2022/10/17 05:19:39;;;;;;;13.82;8.95;;;;;;;;;;5055765;28;20040;-86
2022/10/17 05:22:23;;;;;;;14.57;9.40;;;;;;;;;;5045282;28;20040;-85
2022/10/17 05:25:08;;;;;;;13.00;9.10;;;;;;;;;;5052005;28;20049;-87
2022/10/17 05:27:53;;;;;;;13.27;8.30;;;;;;;;;;5066154;28;20048;-85
2022/10/17 05:30:37;;;;;;;13.55;9.18;;;;;;;;;;5044283;28;20040;-86
2022/10/17 05:33:23;;;;;;;12.48;9.70;;;;;;;;;;5052625;28;20398;-87
2022/10/17 05:36:08;;;;;;;13.38;8.68;;;;;;;;;;5066427;28;20044;-87
2022/10/17 05:38:52;;;;;;;13.88;10.70;;;;;;;;;;5054584;28;20095;-86
2022/10/17 05:41:37;;;;;;;14.10;8.75;;;;;;;;;;5058982;28;20067;-87
2022/10/17 05:44:21;;;;;;;15.43;9.15;;;;;;;;;;5056435;28;20784;-87
2022/10/17 05:47:06;;;;;;;13.50;9.40;;;;;;;;;;5045987;28;20052;-87
2022/10/17 05:49:50;;;;;;;15.27;9.20;;;;;;;;;;5050321;28;20048;-87
2022/10/17 05:52:35;;;;;;;14.63;9.60;;;;;;;;;;5048592;28;20040;-87
2022/10/17 05:55:20;;;;;;;14.57;9.30;;;;;;;;;;5052020;28;20090;-87
2022/10/17 05:58:05;;;;;;;12.02;8.20;;;;;;;;;;5041952;28;20193;-86
2022/10/17 06:00:49;;;;;;;15.73;9.77;;;;;;;;;;5043963;28;20067;-87
2022/10/17 06:03:34;;;;;;;15.13;9.57;;;;;;;;;;5038140;28;20094;-87
2022/10/17 06:06:19;;;;;;;13.63;9.07;;;;;;;;;;5036233;28;20260;-87
2022/10/17 06:09:04;;;;;;;18.10;9.40;;;;;;;;;;5052268;28;20036;-88
2022/10/17 06:11:49;;;;;;;15.57;9.65;;;;;;;;;;5053577;28;20068;-85
2022/10/17 06:14:33;;;;;;;13.55;9.30;;;;;;;;;;5054227;28;20036;-85
2022/10/17 06:17:18;;;;;;;11.65;9.07;;;;;;;;;;5044364;28;20048;-86
2022/10/17 06:20:03;;;;;;;16.95;9.15;;;;;;;;;;5054521;28;20043;-86
2022/10/17 06:22:48;;;;;;;14.50;9.63;;;;;;;;;;5055109;28;20062;-85
2022/10/17 06:25:33;;;;;;;13.65;9.07;;;;;;;;;;5056929;28;20086;-85
2022/10/17 06:28:17;;;;;;;14.10;9.32;;;;;;;;;;5051765;28;20104;-86
2022/10/17 06:31:06;;;;;;;14.02;10.35;;;;;;;;;;5056968;28;20516;-85
2022/10/17 06:33:51;;;;;;;15.07;9.35;;;;;;;;;;5047883;28;20087;-85
2022/10/17 06:36:35;;;;;;;14.05;9.18;;;;;;;;;;5059083;28;20043;-85
2022/10/17 06:39:20;;;;;;;17.15;9.65;;;;;;;;;;5036634;28;20146;-85
2022/10/17 06:42:04;;;;;;;15.32;9.20;;;;;;;;;;5063588;28;20027;-86
2022/10/17 06:44:49;;;;;;;13.30;8.88;;;;;;;;;;5057841;28;20496;-85
2022/10/17 06:47:34;;;;;;;13.27;9.05;;;;;;;;;;5048487;28;20040;-85
2022/10/17 06:50:18;;;;;;;15.05;8.48;;;;;;;;;;5062134;28;20076;-86
2022/10/17 06:53:03;;;;;;;12.95;8.35;;;;;;;;;;5051358;28;20561;-85
2022/10/17 06:55:52;;;;;;;13.02;8.35;;;;;;;;;;5050729;28;20051;-85
2022/10/17 06:58:38;;;;;;;14.18;8.27;;;;;;;;;;5063465;28;20035;-85
2022/10/17 07:01:23;;;;;;;12.00;7.82;;;;;;;;;;5048945;28;20086;-85
2022/10/17 07:04:08;;;;;;;13.07;8.52;;;;;;;;;;5050412;28;20039;-86
2022/10/17 07:06:52;;;;;;;12.48;7.28;;;;;;;;;;5044293;28;20044;-85
2022/10/17 07:09:37;;;;;;;12.40;7.82;;;;;;;;;;5064786;28;20058;-85
2022/10/17 07:12:23;;;;;;;13.88;7.60;;;;;;;;;;5063991;28;20120;-86
2022/10/17 07:15:07;;;;;;;9.27;7.63;;;;;;;;;;5062291;28;20551;-86
2022/10/17 07:17:52;;;;;;;11.27;7.47;;;;;;;;;;5054832;28;20091;-85
2022/10/17 07:20:37;;;;;;;10.68;7.38;;;;;;;;;;5050781;28;20081;-85
2022/10/17 07:23:22;;;;;;;10.90;6.88;;;;;;;;;;5062334;28;20035;-87
2022/10/17 07:26:08;;;;;;;13.93;6.82;;;;;;;;;;5066482;28;20035;-86
2022/10/17 07:28:54;;;;;;;12.55;7.35;;;;;;;;;;5065670;28;20488;-85
2022/10/17 07:31:38;;;;;;;14.52;7.40;;;;;;;;;;5058047;28;20083;-85
2022/10/17 07:34:26;;;;;;;13.95;7.80;;;;;;;;;;5065379;28;20085;-85
2022/10/17 07:37:13;;;;;;;11.65;7.07;;;;;;;;;;5050397;28;20051;-85
2022/10/17 07:39:58;;;;;;;10.75;7.25;;;;;;;;;;5049334;28;20048;-84
2022/10/17 07:42:42;;;;;;;10.07;6.88;;;;;;;;;;5049976;28;20040;-85
2022/10/17 07:45:27;;;;;;;9.88;6.40;;;;;;;;;;5046637;28;20536;-84
2022/10/17 07:48:11;;;;;;;12.15;6.57;;;;;;;;;;5064740;28;20052;-84
2022/10/17 07:50:56;;;;;;;12.52;7.10;;;;;;;;;;5050278;28;20044;-84
2022/10/17 07:53:41;;;;;;;11.30;7.10;;;;;;;;;;5054849;28;20040;-85
2022/10/17 07:56:28;;;;;;;9.38;7.32;;;;;;;;;;5054923;28;20079;-86
2022/10/17 07:59:13;;;;;;;10.02;6.82;;;;;;;;;;5053485;28;20401;-84
2022/10/17 08:01:58;;;;;;;11.38;7.18;;;;;;;;;;5053393;28;20044;-84
2022/10/17 08:04:42;;;;;;;9.10;6.72;;;;;;;;;;5049456;28;20072;-84
2022/10/17 08:07:27;;;;;;;9.32;6.85;;;;;;;;;;5067876;28;20044;-85
2022/10/17 08:10:12;;;;;;;12.18;6.43;;;;;;;;;;5054493;28;20043;-84
2022/10/17 08:12:58;;;;;;;11.50;7.05;;;;;;;;;;5055012;28;20036;-83
2022/10/17 08:15:42;;;;;;;11.90;6.43;;;;;;;;;;5053496;28;20112;-84
2022/10/17 08:18:27;;;;;;;8.13;6.10;;;;;;;;;;5053570;28;20120;-85
2022/10/17 08:21:12;;;;;;;11.43;6.28;;;;;;;;;;5068059;28;20040;-84
2022/10/17 08:23:57;;;;;;;8.60;6.95;;;;;;;;;;5055055;28;20052;-84
2022/10/17 08:26:42;;;;;;;12.50;6.55;;;;;;;;;;5054043;28;20090;-84
2022/10/17 08:29:31;;;;;;;9.63;6.25;;;;;;;;;;5045462;28;20537;-84
2022/10/17 08:32:16;;;;;;;12.65;5.90;;;;;;;;;;5054578;28;20108;-84
2022/10/17 08:35:01;;;;;;;8.65;5.75;;;;;;;;;;5053361;28;20043;-84
2022/10/17 08:37:46;;;;;;;10.68;5.82;;;;;;;;;;5055230;28;20124;-85
2022/10/17 08:40:32;;;;;;;7.50;5.57;;;;;;;;;;5051783;28;20102;-84
2022/10/17 08:43:31;;;;;;;9.75;6.18;;;;;;;;;;5053355;28;20064;-84
2022/10/17 08:46:16;;;;;;;9.20;5.57;;;;;;;;;;5044123;28;20048;-84
2022/10/17 08:49:02;;;;;;;9.52;5.82;;;;;;;;;;5039552;28;20401;-83
2022/10/17 08:51:53;;;;;;;9.02;5.80;;;;;;;;;;5054060;28;20044;-84
2022/10/17 08:54:41;;;;;;;7.70;5.75;;;;;;;;;;5054085;28;20087;-84
2022/10/17 08:57:27;;;;;;;10.52;5.50;;;;;;;;;;5052049;28;20090;-86
2022/10/17 09:00:17;;;;;;;9.70;6.25;;;;;;;;;;5054584;28;20126;-87
2022/10/17 09:03:14;;;;;;;11.45;6.30;;;;;;;;;;5053872;28;20082;-86
2022/10/17 09:06:01;;;;;;;11.77;6.07;;;;;;;;;;5051774;28;20055;-84
2022/10/17 09:08:46;;;;;;;9.95;5.65;;;;;;;;;;5046119;28;20067;-84
2022/10/17 09:11:48;;;;;;;7.95;5.60;;;;;;;;;;5058441;28;20086;-83
2022/10/17 09:14:45;;;;;;;9.57;5.90;;;;;;;;;;5056371;28;20036;-83
2022/10/17 09:17:50;;;;;;;7.75;5.72;;;17.40;99.90;;;;;;5048628;28;20086;-84
2022/10/17 09:20:57;;;;;;;10.05;6.20;;;;;;;;;;5053093;28;20109;-84
2022/10/17 09:23:57;;;;;;;9.52;5.60;;;;;;;;;;5053434;28;20489;-83
2022/10/17 09:26:42;;;;;;;7.30;5.22;;;;;;;;;;5053192;28;20040;-87
2022/10/17 09:29:26;;;;;;;8.57;5.07;;;;;;;;;;5053391;28;20040;-84
2022/10/17 09:32:14;;;;;;;8.10;5.63;;;;;;;;;;5052689;28;20044;-85
2022/10/17 09:34:59;;;;;;;11.15;6.00;;;;;;;;;;5052042;28;20206;-85
2022/10/17 09:37:44;;;;;;;10.68;5.57;;;;;;;;;;5052161;28;20071;-85
2022/10/17 09:40:33;;;;;;;7.47;6.30;;;;;;;;;;5056338;28;20063;-84
2022/10/17 09:43:18;;;;;;;10.52;5.95;;;;;;;;;;5059457;28;20056;-84
2022/10/17 09:46:37;;;;;;;8.27;5.68;;;17.10;99.90;;;;;;5042086;28;20138;-84
2022/10/17 09:49:28;;;;;;;7.50;5.68;;;;;;;;;;5055609;28;20031;-85
2022/10/17 09:52:19;;;;;;;7.05;5.65;;;;;;;;;;5060422;28;20067;-85
2022/10/17 09:55:06;;;;;;;12.20;6.32;;;;;;;;;;5059932;28;20035;-84
2022/10/17 09:57:55;;;;;;;15.40;8.63;;;;;;;;;;5052782;28;20115;-84
2022/10/17 10:00:41;;;;;;;11.02;6.47;;;;;;;;;;5056964;28;20515;-85
2022/10/17 10:03:26;;;;;;;11.32;7.00;;;;;;;;;;5052026;28;20048;-85
2022/10/17 10:06:13;;;;;;;10.32;6.75;;;;;;;;;;5052881;28;20534;-84
2022/10/17 10:08:58;;;;;;;8.07;6.65;;;;;;;;;;5045642;28;20054;-87
2022/10/17 10:11:50;;;;;;;8.50;6.65;;;;;;;;;;5052047;28;20452;-86
2022/10/17 10:14:36;;;;;;;15.50;9.18;;;;;;;;;;5051607;28;20147;-88
2022/10/17 10:17:47;;;;;;;9.70;7.35;;;;;;;;;;5059088;28;20090;-85
2022/10/17 10:20:36;;;;;;;11.80;7.00;;;;;;;;;;5065386;28;20032;-90
2022/10/17 10:23:21;;;;;;;12.95;7.30;;;;;;;;;;5051867;28;20407;-86
2022/10/17 10:26:18;;;;;;;12.18;7.30;;;;;;;;;;5046268;28;20218;-86
2022/10/17 10:29:05;;;;;;;11.63;6.45;;;;;;;;;;5053415;28;20460;-85
2022/10/17 10:31:53;;;;;;;13.77;7.45;;;;;;;;;;5057062;28;20032;-85
2022/10/17 10:34:49;;;;;;;12.13;7.50;;;;;;;;;;5056082;28;20151;-85
2022/10/17 10:37:36;;;;;;;12.05;7.53;;;;;;;;;;5043291;28;20091;-84
2022/10/17 10:40:27;;;;;;;14.20;7.35;;;;;;;;;;5068774;28;20035;-84
2022/10/17 10:43:29;;;;;;;13.25;7.13;;;;;;;;;;5055571;28;20081;-84
2022/10/17 10:46:16;;;;;;;10.10;7.80;;;;;;;;;;5071137;28;20044;-84
2022/10/17 10:49:02;;;;;;;15.07;7.60;;;;;;;;;;5050730;28;20112;-85
2022/10/17 10:51:47;;;;;;;11.18;7.28;;;;;;;;;;5053532;28;20475;-87
2022/10/17 10:54:39;;;;;;;14.75;7.70;;;;;;;;;;5050691;28;20040;-86
2022/10/17 10:57:26;;;;;;;13.30;8.25;;;;;;;;;;5042496;28;20182;-84
2022/10/17 11:00:16;;;;;;;12.02;7.93;;;;;;;;;;5049776;28;20028;-86
2022/10/17 11:03:14;;;;;;;16.92;7.43;;;;;;;;;;5050665;28;20386;-85
2022/10/17 11:06:02;;;;;;;13.85;8.00;;;;;;;;;;5047057;28;20088;-86
2022/10/17 11:08:49;;;;;;;10.95;8.32;;;;;;;;;;5053287;28;20082;-85
2022/10/17 11:11:38;;;;;;;14.48;8.07;;;;;;;;;;5048851;28;20115;-86
2022/10/17 11:14:32;;;;;;;10.77;8.18;;;;;;;;;;5048018;28;20041;-85
2022/10/17 11:17:21;;;;;;;12.07;7.88;;;;;;;;;;5041344;28;20082;-85
2022/10/17 11:20:09;;;;;;;16.25;7.90;;;;;;;;;;5047927;28;20542;-85
2022/10/17 11:23:01;;;;;;;16.17;8.90;;;;;;;;;;5048411;28;20048;-85
2022/10/17 11:25:47;;;;;;;16.90;8.90;;;;;;;;;;5043183;28;20031;-85
2022/10/17 11:28:31;;;;;;;15.75;8.45;;;;;;;;;;5054167;28;20086;-85
2022/10/17 11:31:17;;;;;;;13.85;8.05;;;;;;;;;;5052692;28;20118;-85
2022/10/17 11:34:02;;;;;;;15.10;7.85;;;;;;;;;;5052599;28;20046;-86
2022/10/17 11:36:49;;;;;;;12.50;9.10;;;;;;;;;;5052501;28;20075;-85
2022/10/17 11:39:47;;;;;;;14.60;9.05;;;;;;;;;;5052469;28;20035;-86
2022/10/17 11:42:41;;;;;;;13.15;8.85;;;;;;;;;;5053718;28;20392;-85
2022/10/17 11:45:27;;;;;;;15.23;8.43;;;;;;;;;;5057950;28;20389;-86
2022/10/17 11:48:15;;;;;;;14.60;8.63;;;;;;;;;;5043850;28;20090;-86
2022/10/17 11:51:04;;;;;;;15.38;8.07;;;;;;;;;;5053595;28;20067;-87
2022/10/17 11:53:52;;;;;;;13.15;8.60;;;;;;;;;;5053766;28;20113;-85
2022/10/17 11:56:41;;;;;;;15.07;8.30;;;;;;;;;;5051829;28;20052;-86
2022/10/17 11:59:32;;;;;;;15.73;8.88;;;;;;;;;;5053371;28;20152;-86
2022/10/17 12:02:40;;;;;;;14.52;8.45;;;16.90;99.90;;;;;;5054011;28;20043;-85
2022/10/17 12:05:44;;;;;;;13.50;8.50;;;;;;;;;;5053046;28;20027;-85
2022/10/17 12:08:30;;;;;;;12.70;7.93;;;;;;;;;;5047836;28;20451;-85
2022/10/17 12:11:17;;;;;;;12.23;7.65;;;;;;;;;;5053114;28;20108;-85
2022/10/17 12:14:02;;;;;;;11.80;7.40;;;;;;;;;;5052052;28;20040;-87
2022/10/17 12:16:47;;;;;;;9.05;6.68;;;;;;;;;;5052186;28;20040;-86
2022/10/17 12:19:33;;;;;;;10.80;6.32;;;;;;;;;;5053665;28;20083;-85
2022/10/17 12:22:20;;;;;;;12.07;6.75;;;;;;;;;;5052723;28;20043;-85
2022/10/17 12:25:04;;;;;;;9.93;6.15;;;;;;;;;;5054198;28;20543;-87
2022/10/17 12:27:50;;;;;;;9.25;5.93;;;;;;;;;;5049756;28;20079;-85
2022/10/17 12:30:35;;;;;;;12.88;6.75;;;;;;;;;;5051612;28;20059;-86
2022/10/17 12:33:26;;;;;;;10.80;7.32;;;;;;;;;;5054201;28;20042;-85
2022/10/17 12:36:16;;;;;;;8.98;6.60;;;;;;;;;;5058765;28;20042;-88
2022/10/17 12:39:10;;;;;;;8.70;6.32;;;;;;;;;;5046367;28;20040;-86
2022/10/17 12:41:56;;;;;;;10.63;6.43;;;;;;;;;;5052918;28;20094;-86
2022/10/17 12:44:40;;;;;;;10.43;5.97;;;;;;;;;;5051770;28;20504;-86
2022/10/17 12:47:36;;;;;;;8.82;6.53;;;;;;;;;;5055540;28;20591;-88
2022/10/17 12:51:18;;;;;;;8.80;5.25;;;17.00;99.90;;;;;;5051463;28;20572;-85
2022/10/17 12:54:13;;;;;;;6.00;4.40;;;;;;;;;;5041666;28;20500;-90
2022/10/17 12:56:59;;;;;;;4.43;2.70;;;;;;;;;;5045373;28;20044;-87
2022/10/17 12:59:44;;;;;;;4.28;2.90;;;;;;;;;;5050593;28;20098;-85
2022/10/17 13:02:31;;;;;;;3.60;2.70;;;;;;;;;;5049737;28;20103;-86
2022/10/17 13:05:19;;;;;;;4.95;2.90;;;;;;;;;;5052431;28;20048;-86
2022/10/17 13:08:06;;;;;;;6.75;3.10;;;;;;;;;;5049505;28;20045;-85
2022/10/17 13:10:52;;;;;;;5.28;2.75;;;;;;;;;;5049066;28;20119;-85
2022/10/17 13:13:47;;;;;;;4.93;3.40;;;;;;;;;;5043196;28;20051;-85
2022/10/17 13:16:37;;;;;;;6.10;3.50;;;;;;;;;;5044166;28;20032;-85
2022/10/17 13:19:23;;;;;;;6.90;4.30;;;;;;;;;;5057400;28;20507;-85
2022/10/17 13:22:20;;;;;;;6.35;3.50;;;;;;;;;;5059688;28;20145;-87
2022/10/17 13:25:09;;;;;;;6.18;4.07;;;;;;;;;;5059185;28;20079;-86
2022/10/17 13:28:12;;;;;;;5.65;3.72;;;;;;;;;;5063156;28;20090;-86
2022/10/17 13:30:56;;;;;;;4.82;3.50;;;;;;;;;;5055071;28;20078;-84
2022/10/17 13:33:41;;;;;;;8.30;4.10;;;;;;;;;;5044231;28;20060;-86
2022/10/17 13:36:27;;;;;;;7.95;3.72;;;;;;;;;;5044234;28;20047;-85
2022/10/17 13:39:14;;;;;;;7.50;3.67;;;;;;;;;;5044267;28;20466;-90
2022/10/17 13:41:59;;;;;;;6.18;3.72;;;;;;;;;;5053885;28;20067;-86
2022/10/17 13:44:45;;;;;;;6.28;3.75;;;;;;;;;;5051702;28;20071;-86
2022/10/17 13:47:34;;;;;;;5.30;3.35;;;;;;;;;;5064902;28;20472;-85
2022/10/17 13:50:22;;;;;;;9.48;3.97;;;;;;;;;;5049562;28;20047;-84
2022/10/17 13:53:07;;;;;;;5.93;3.13;;;;;;;;;;5064829;28;20040;-86
2022/10/17 13:55:58;;;;;;;6.47;2.95;;;;;;;;;;5052135;28;20060;-86
2022/10/17 13:58:46;;;;;;;4.65;3.30;;;;;;;;;;5052307;28;20546;-87
2022/10/17 14:01:38;;;;;;;5.95;2.97;;;16.00;99.90;;;;;;5051367;28;20421;-85
2022/10/17 14:04:23;;;;;;;7.97;2.88;;;;;;;;;;5051753;28;20108;-86
2022/10/17 14:07:59;;;;;;;6.00;2.65;;;16.00;99.90;;;;;;5045057;28;20448;-86
2022/10/17 14:10:44;;;;;;;4.90;2.75;;;;;;;;;;5036215;28;20102;-86
2022/10/17 14:13:34;;;;;;;9.15;3.20;;;;;;;;;;5035497;28;20139;-86
2022/10/17 14:16:23;;;;;;;5.53;2.80;;;;;;;;;;5052683;28;20040;-85
2022/10/17 14:19:26;;;;;;;4.93;2.60;;;;;;;;;;5056292;28;20389;-86
2022/10/17 14:22:18;;;;;;;7.13;2.83;;;;;;;;;;5041868;28;20159;-87
2022/10/17 14:25:03;;;;;;;4.50;2.45;;;;;;;;;;5050833;28;20064;-87
2022/10/17 14:27:54;;;;;;;7.03;2.70;;;;;;;;;;5050217;28;20493;-87
2022/10/17 14:30:43;;;;;;;7.40;2.72;;;;;;;;;;5049975;28;20055;-89
2022/10/17 14:33:29;;;;;;;4.13;2.53;;;;;;;;;;5051051;28;20035;-87
2022/10/17 14:36:14;;;;;;;10.45;2.60;;;;;;;;;;5050859;28;20032;-85
2022/10/17 14:38:59;;;;;;;4.25;2.80;;;;;;;;;;5059038;28;20159;-86
2022/10/17 14:41:45;;;;;;;6.85;3.20;;;;;;;;;;5052197;28;20079;-86
2022/10/17 14:44:31;;;;;;;4.00;2.17;;;;;;;;;;5051784;28;20084;-87
2022/10/17 14:47:18;;;;;;;3.55;2.28;;;;;;;;;;5049465;28;20091;-86
2022/10/17 14:50:06;;;;;;;6.10;2.40;;;;;;;;;;5048511;28;20031;-87
2022/10/17 14:52:59;;;;;;;4.28;2.15;;;;;;;;;;5042552;28;20047;-86
2022/10/17 14:55:54;;;;;;;3.83;2.10;;;;;;;;;;5033372;28;20093;-87
2022/10/17 14:58:39;;;;;;;6.15;3.22;;;;;;;;;;5048868;28;20085;-87
2022/10/17 15:01:23;;;;;;;4.47;2.30;;;;;;;;;;5047477;28;20563;-87
2022/10/17 15:04:09;;;;;;;4.75;2.40;;;;;;;;;;5060152;28;20047;-86
2022/10/17 15:06:54;;;;;;;4.03;2.38;;;;;;;;;;5050328;28;20507;-86
2022/10/17 15:09:40;;;;;;;5.35;2.30;;;;;;;;;;5049423;28;20040;-87
2022/10/17 15:12:25;;;;;;;6.00;2.25;;;;;;;;;;5055193;28;20039;-84
2022/10/17 15:15:10;;;;;;;4.32;2.05;;;;;;;;;;5050648;28;20124;-83
2022/10/17 15:17:54;;;;;;;4.63;1.70;;;;;;;;;;5051964;28;20089;-84
2022/10/17 15:20:39;;;;;;;4.78;2.10;;;;;;;;;;5051287;28;20120;-84
2022/10/17 15:23:23;;;;;;;3.38;1.77;;;;;;;;;;5050786;28;20094;-86
2022/10/17 15:26:28;;;;;;;3.85;1.70;;;;;;;;;;5060575;28;20051;-84
2022/10/17 15:29:14;;;;;;;4.93;2.20;;;;;;;;;;5045775;28;20102;-85
2022/10/17 15:31:58;;;;;;;4.28;2.00;;;;;;;;;;5051574;28;20397;-85
2022/10/17 15:34:43;;;;;;;6.35;2.20;;;;;;;;;;5051109;28;20109;-85
2022/10/17 15:37:32;;;;;;;4.72;2.65;;;;;;;;;;5051598;28;20036;-88
2022/10/17 15:40:24;;;;;;;5.60;2.10;;;;;;;;;;5052707;28;20107;-89
2022/10/17 15:43:09;;;;;;;3.60;1.88;;;;;;;;;;5059153;28;20039;-88
2022/10/17 15:45:53;;;;;;;4.28;2.40;;;;;;;;;;5052177;28;20032;-89
2022/10/17 15:48:38;;;;;;;4.43;2.00;;;;;;;;;;5075114;28;20067;-90
2022/10/17 15:51:23;;;;;;;4.85;2.30;;;;;;;;;;5026994;28;20131;-87
2022/10/17 15:54:07;;;;;;;3.53;2.13;;;;;;;;;;5051102;28;20102;-88
2022/10/17 15:56:53;;;;;;;6.20;2.95;;;15.30;99.90;;;;;;5050070;28;20094;-88
2022/10/17 15:59:38;;;;;;;4.93;2.67;;;;;;;;;;5037445;28;20094;-87
2022/10/17 16:02:23;;;;;;;6.25;3.00;;;;;;;;;;5064524;28;20044;-88
2022/10/17 16:05:34;;;;;;;8.25;3.63;;;;;;;;;;5050656;28;20035;-87
2022/10/17 16:08:18;;;;;;;6.90;2.72;;;;;;;;;;5050401;28;20103;-88
2022/10/17 16:11:03;;;;;;;7.05;3.20;;;;;;;;;;5050323;28;20120;-89
2022/10/17 16:13:50;;;;;;;4.18;2.35;;;;;;;;;;5066948;28;20039;-88
2022/10/17 16:16:35;;;;;;;6.68;2.30;;;;;;;;;;5054466;28;20040;-88
2022/10/17 16:19:20;;;;;;;4.47;2.28;;;;;;;;;;5053987;28;20547;-89
2022/10/17 16:22:05;;;;;;;7.75;2.35;;;;;;;;;;5054303;28;20551;-89
2022/10/17 16:24:56;;;;;;;5.40;2.30;;;;;;;;;;5053444;28;20032;-87
2022/10/17 16:27:41;;;;;;;6.45;2.33;;;;;;;;;;5054277;28;20051;-87
2022/10/17 16:30:28;;;;;;;9.10;2.72;;;;;;;;;;5043916;28;20508;-87
2022/10/17 16:33:12;;;;;;;3.53;2.60;;;;;;;;;;5054370;28;20400;-88
2022/10/17 16:35:57;;;;;;;4.25;2.50;;;;;;;;;;5053387;28;20604;-87